« トワイライトエクスプレスの運行終了の理由が「老朽化」としか報じられないのが残念 | トップページ | 空港で撮影の後、小倉オクトーバーフェストに行ってきました »

2014年5月31日 (土)

今日の庭5/31 ~ウズアジサイやら百合やら

久しぶりにのんびりできる土曜日。

METAR RJFR 310100Z VRB04KT 6000 NSC 22/18 Q1015

北九州空港は雲はないが視程6km。黄砂の影響か、うちから見ても小倉駅周辺のビルが見えにくいです。午後から空港に行くのどうしようかなぁ…

Img_6090

坪庭の一角で、大きく育ったアジサイ。

Img_6089

一部の花が色づき始めました。

Img_6091

ウズアジサイといって、花びら(実際にはガクですが)が丸まっているのがかわいらしいです。

自分で挿し木して育てたので思い入れがありますが、この場所が合っているのか、立派に育ってくれました。むしろ、花が終わったら来年のことを考えて剪定をどうするかを考えておかないといけません。

Img_6083

駐車場の片隅で咲いているのが百合の花。

Img_6085

なんか、奥のほうの株がとってもゴージャスなことになっています。

数えてみると今の時点で花が9個。つぼみが3つ残っています。

Img_6086

マクロレンズを活かしてめしべの柱頭と、おしべのやくをアップに。

去年の写真を見直してみると、この株のある位置には花が咲いていません。そういえば、妻の車に轢かれてつぼみが落ちたんだったかなぁ… もしかしたら、昨年花がつかなかったことで球根にたくさん養分が蓄えられ、今年に繋がったのかもしれません。

Img_6082

駐車場の目地に、こんな芽生えがたくさんあります。

Img_6093

この場所に種が落ちるものを考えると、このシマトネリコが容疑者に。実生の画像を検索すると、間違っていないように思いますが、本葉が伸びてこないと分かりません。

雑草扱いして抜いていましたが、少し大きくなるまで見守ってみようかな… でも、ここで大きくなられても困るので、確認出来たら処分します

Img_6106

菜園は夏野菜の苗も定着して夏仕様に。

Img_6098
Img_6097

定番の、キュウリとトマトの花。どちらもそろそろ実がつき始めます。

Img_6096

ミニカボチャを植えてみたら、花は咲くのですが株(ツル)が伸びてきません。場所か土が合わないのかなぁ…

Img_6104

春先に植えて、トウが立ち始めたレタス。

Img_6103

葉の裏にいるアブラムシと、それに引き寄せられたテントウムシの幼虫を見つけました。

Img_6076

椅子の上で寝ているが、菜園にスズメが来ると気になってしかたがないうちの猫です。

« トワイライトエクスプレスの運行終了の理由が「老朽化」としか報じられないのが残念 | トップページ | 空港で撮影の後、小倉オクトーバーフェストに行ってきました »

家(DIY・ガーデニング)」カテゴリの記事

コメント

コメントを書く

(ウェブ上には掲載しません)

« トワイライトエクスプレスの運行終了の理由が「老朽化」としか報じられないのが残念 | トップページ | 空港で撮影の後、小倉オクトーバーフェストに行ってきました »

無料ブログはココログ